^^
Station Historical Data
Daily Summary for January 17, 2018 Units:  English    Metric   Both
« Previous Day
Next Day »
Daily Weekly Monthly Yearly Custom
  High: Low: Average:
Temperature: TemperatureF °F 43.0 °F 55 °F
Dew Point: DewpointF °F 28.8 °F 45.6 °F
Humidity: Humidity% 40% 74%
Wind Speed: WindSpeedMPHmph 0.0mph 0mph
Wind Gust: WindSpeedGustMPHmph - -
Wind- - North
Pressure: PressureIn in 30.16 in -
Precipitation: 0.00 in    
Historical Graphs
 
 
Tabular Data for January 17, 2018
Time Temperature Dew Point Pressure Wind Wind Speed Wind Gust Humidity Rainfall Rate (Hourly) solar Conditions
TemperatureF °F DewpointF °F PressureIn in Calm     Humidity% HourlyPrecipIn in SolarRadiationWatts/m^2 W/m2 Conditions
00:00 53.1 °F 50.8 °F 30.30 in Calm     92% 0.00 in 0.0 W/m2 CLR
00:10 51.1 °F 50.0 °F 30.29 in Calm     96% 0.00 in 0.0 W/m2 CLR
00:20 51.1 °F 50.0 °F 30.29 in Calm     96% 0.00 in 0.0 W/m2 CLR
00:35 51.1 °F 50.0 °F 30.29 in Calm     96% 0.00 in 0.0 W/m2 CLR
00:40 51.1 °F 50.0 °F 30.29 in Calm     96% 0.00 in 0.0 W/m2 CLR
00:45 51.1 °F 50.0 °F 30.29 in Calm     96% 0.00 in 0.0 W/m2 CLR
00:55 51.1 °F 50.0 °F 30.29 in Calm     96% 0.00 in 0.0 W/m2 CLR
01:00 51.1 °F 50.0 °F 30.29 in Calm     96% 0.00 in 0.0 W/m2 CLR
01:10 50.0 °F 50.0 °F 30.27 in Calm     100% 0.00 in 0.0 W/m2 CLR
01:15 50.0 °F 50.0 °F 30.27 in Calm     100% 0.00 in 0.0 W/m2 CLR
01:25 50.0 °F 50.0 °F 30.27 in Calm     100% 0.00 in 0.0 W/m2 CLR
01:30 50.0 °F 50.0 °F 30.27 in Calm     100% 0.00 in 0.0 W/m2 CLR
01:40 50.0 °F 50.0 °F 30.27 in Calm     100% 0.00 in 0.0 W/m2 CLR
01:55 50.0 °F 50.0 °F 30.27 in Calm     100% 0.00 in 0.0 W/m2 CLR
02:00 50.0 °F 50.0 °F 30.27 in Calm     100% 0.00 in 0.0 W/m2 CLR
02:10 50.0 °F 50.0 °F 30.25 in Calm     100% 0.00 in 0.0 W/m2 CLR
02:15 50.0 °F 50.0 °F 30.25 in Calm     100% 0.00 in 0.0 W/m2 CLR
02:25 50.0 °F 50.0 °F 30.25 in Calm     100% 0.00 in 0.0 W/m2 CLR
02:30 50.0 °F 50.0 °F 30.25 in Calm     100% 0.00 in 0.0 W/m2 CLR
02:40 50.0 °F 50.0 °F 30.25 in Calm     100% 0.00 in 0.0 W/m2 CLR
02:45 50.0 °F 50.0 °F 30.25 in Calm     100% 0.00 in 0.0 W/m2 CLR
02:55 50.0 °F 50.0 °F 30.25 in Calm     100% 0.00 in 0.0 W/m2 CLR
03:00 50.0 °F 50.0 °F 30.25 in Calm     100% 0.00 in 0.0 W/m2 CLR
03:10 48.9 °F 48.9 °F 30.24 in Calm     100% 0.00 in 0.0 W/m2 CLR
03:15 48.9 °F 48.9 °F 30.24 in Calm     100% 0.00 in 0.0 W/m2 CLR
03:30 48.9 °F 48.9 °F 30.24 in Calm     100% 0.00 in 0.0 W/m2 CLR
03:45 48.9 °F 48.9 °F 30.24 in Calm     100% 0.00 in 0.0 W/m2 CLR
03:55 48.9 °F 48.9 °F 30.24 in Calm     100% 0.00 in 0.0 W/m2 CLR
04:00 48.9 °F 48.9 °F 30.24 in Calm     100% 0.00 in 0.0 W/m2 CLR
04:15 48.0 °F 48.0 °F 30.23 in Calm     100% 0.00 in 0.0 W/m2 CLR
04:25 48.0 °F 48.0 °F 30.23 in Calm     100% 0.00 in 0.0 W/m2 CLR
04:30 48.0 °F 48.0 °F 30.23 in Calm     100% 0.00 in 0.0 W/m2 CLR
04:40 48.0 °F 48.0 °F 30.23 in Calm     100% 0.00 in 0.0 W/m2 CLR
04:45 48.0 °F 48.0 °F 30.23 in Calm     100% 0.00 in 0.0 W/m2 CLR
04:55 48.0 °F 48.0 °F 30.23 in Calm     100% 0.00 in 0.0 W/m2 CLR
05:00 48.0 °F 48.0 °F 30.23 in Calm     100% 0.00 in 0.0 W/m2 CLR
05:10 48.0 °F 48.0 °F 30.23 in Calm     100% 0.00 in 0.0 W/m2 CLR
05:15 48.0 °F 48.0 °F 30.23 in Calm     100% 0.00 in 0.0 W/m2 CLR
05:25 48.0 °F 48.0 °F 30.23 in Calm     100% 0.00 in 0.0 W/m2 CLR
05:30 48.0 °F 48.0 °F 30.23 in Calm     100% 0.00 in 0.0 W/m2 CLR
05:40 48.0 °F 48.0 °F 30.23 in Calm     100% 0.00 in 0.0 W/m2 CLR
05:45 48.0 °F 48.0 °F 30.23 in Calm     100% 0.00 in 0.0 W/m2 CLR
05:50 48.0 °F 48.0 °F 30.23 in Calm     100% 0.00 in 0.0 W/m2 CLR
06:00 48.0 °F 48.0 °F 30.23 in Calm     100% 0.00 in 0.0 W/m2 CLR
06:10 48.9 °F 47.8 °F 30.24 in Calm     96% 0.00 in 0.0 W/m2 CLR
06:15 48.9 °F 47.8 °F 30.24 in Calm     96% 0.00 in 0.0 W/m2 CLR
06:25 48.9 °F 47.8 °F 30.24 in Calm     96% 0.00 in 0.0 W/m2 CLR
06:30 48.9 °F 47.8 °F 30.24 in Calm     96% 0.00 in 0.0 W/m2 CLR
06:40 48.9 °F 47.8 °F 30.24 in Calm     96% 0.00 in 0.0 W/m2 CLR
06:45 48.9 °F 47.8 °F 30.24 in Calm     96% 0.00 in 0.0 W/m2 CLR
06:55 48.9 °F 47.8 °F 30.24 in Calm     96% 0.00 in 0.0 W/m2 CLR
07:00 48.9 °F 47.8 °F 30.24 in Calm     96% 0.00 in 0.0 W/m2 CLR
07:10 48.0 °F 46.9 °F 30.25 in Calm     96% 0.00 in 0.0 W/m2 CLR
07:15 48.0 °F 46.9 °F 30.25 in Calm     96% 0.00 in 0.0 W/m2 CLR
07:25 48.0 °F 46.9 °F 30.25 in Calm     96% 0.00 in 0.0 W/m2 CLR
07:30 48.0 °F 46.9 °F 30.25 in Calm     96% 0.00 in 0.0 W/m2 CLR
07:40 48.0 °F 46.9 °F 30.25 in Calm     96% 0.00 in 0.0 W/m2 CLR
07:45 48.0 °F 46.9 °F 30.25 in Calm     96% 0.00 in 0.0 W/m2 CLR
07:50 48.0 °F 46.9 °F 30.25 in Calm     96% 0.00 in 0.0 W/m2 CLR
08:00 48.0 °F 46.9 °F 30.25 in Calm     96% 0.00 in 0.0 W/m2 CLR
08:15 50.0 °F 48.9 °F 30.26 in Calm     96% 0.00 in 0.0 W/m2 CLR
08:25 50.0 °F 48.9 °F 30.26 in Calm     96% 0.00 in 0.0 W/m2 CLR
08:30 50.0 °F 48.9 °F 30.26 in Calm     96% 0.00 in 0.0 W/m2 CLR
08:40 50.0 °F 48.9 °F 30.26 in Calm     96% 0.00 in 0.0 W/m2 CLR
08:45 50.0 °F 48.9 °F 30.26 in Calm     96% 0.00 in 0.0 W/m2 CLR
08:55 50.0 °F 48.9 °F 30.26 in Calm     96% 0.00 in 0.0 W/m2 CLR
09:10 54.0 °F 49.9 °F 30.26 in Calm     86% 0.00 in 0.0 W/m2 CLR
09:15 54.0 °F 49.9 °F 30.26 in Calm     86% 0.00 in 0.0 W/m2 CLR
09:20 54.0 °F 49.9 °F 30.26 in Calm     86% 0.00 in 0.0 W/m2 CLR
09:30 54.0 °F 49.9 °F 30.26 in Calm     86% 0.00 in 0.0 W/m2 CLR
09:40 54.0 °F 49.9 °F 30.26 in Calm     86% 0.00 in 0.0 W/m2 CLR
09:45 54.0 °F 49.9 °F 30.26 in Calm     86% 0.00 in 0.0 W/m2 CLR
09:55 54.0 °F 49.9 °F 30.26 in Calm     86% 0.00 in 0.0 W/m2 CLR
10:00 54.0 °F 49.9 °F 30.26 in Calm     86% 0.00 in 0.0 W/m2 CLR
10:10 60.1 °F 49.9 °F 30.27 in Calm     69% 0.00 in 0.0 W/m2 CLR
10:15 60.1 °F 49.9 °F 30.27 in Calm     69% 0.00 in 0.0 W/m2 CLR
10:30 60.1 °F 49.9 °F 30.27 in Calm     69% 0.00 in 0.0 W/m2 CLR
10:45 60.1 °F 49.9 °F 30.27 in Calm     69% 0.00 in 0.0 W/m2 CLR
10:55 60.1 °F 49.9 °F 30.27 in Calm     69% 0.00 in 0.0 W/m2 CLR
11:00 60.1 °F 49.9 °F 30.27 in Calm     69% 0.00 in 0.0 W/m2 CLR
11:10 64.0 °F 48.5 °F 30.26 in Calm     57% 0.00 in 0.0 W/m2 CLR
11:15 64.0 °F 48.5 °F 30.26 in Calm     57% 0.00 in 0.0 W/m2 CLR
11:25 64.0 °F 48.5 °F 30.26 in Calm     57% 0.00 in 0.0 W/m2 CLR
11:30 64.0 °F 48.5 °F 30.26 in Calm     57% 0.00 in 0.0 W/m2 CLR
11:40 64.0 °F 48.5 °F 30.26 in Calm     57% 0.00 in 0.0 W/m2 CLR
11:55 64.0 °F 48.5 °F 30.26 in Calm     57% 0.00 in 0.0 W/m2 CLR
12:00 64.0 °F 48.5 °F 30.26 in Calm     57% 0.00 in 0.0 W/m2 CLR
12:10 68.0 °F 43.4 °F 30.25 in Calm     41% 0.00 in 0.0 W/m2 CLR
12:15 68.0 °F 43.4 °F 30.25 in Calm     41% 0.00 in 0.0 W/m2 CLR
12:25 68.0 °F 43.4 °F 30.25 in Calm     41% 0.00 in 0.0 W/m2 CLR
12:30 68.0 °F 43.4 °F 30.25 in Calm     41% 0.00 in 0.0 W/m2 CLR
12:40 68.0 °F 43.4 °F 30.25 in Calm     41% 0.00 in 0.0 W/m2 CLR
12:45 68.0 °F 43.4 °F 30.25 in Calm     41% 0.00 in 0.0 W/m2 CLR
12:55 68.0 °F 43.4 °F 30.25 in Calm     41% 0.00 in 0.0 W/m2 CLR
13:00 68.0 °F 43.4 °F 30.25 in Calm     41% 0.00 in 0.0 W/m2 CLR
13:10 69.1 °F 44.4 °F 30.21 in Calm     41% 0.00 in 0.0 W/m2 CLR
13:25 69.1 °F 44.4 °F 30.21 in Calm     41% 0.00 in 0.0 W/m2 CLR
13:30 69.1 °F 44.4 °F 30.21 in Calm     41% 0.00 in 0.0 W/m2 CLR
13:40 69.1 °F 44.4 °F 30.21 in Calm     41% 0.00 in 0.0 W/m2 CLR
13:45 69.1 °F 44.4 °F 30.21 in Calm     41% 0.00 in 0.0 W/m2 CLR
13:55 69.1 °F 44.4 °F 30.21 in Calm     41% 0.00 in 0.0 W/m2 CLR
14:00 69.1 °F 44.4 °F 30.21 in Calm     41% 0.00 in 0.0 W/m2 CLR
14:10 70.0 °F 44.5 °F 30.18 in Calm     40% 0.00 in 0.0 W/m2 CLR
14:15 70.0 °F 44.5 °F 30.18 in Calm     40% 0.00 in 0.0 W/m2 CLR
14:25 70.0 °F 44.5 °F 30.18 in Calm     40% 0.00 in 0.0 W/m2 CLR
14:30 70.0 °F 44.5 °F 30.18 in Calm     40% 0.00 in 0.0 W/m2 CLR
14:40 70.0 °F 44.5 °F 30.18 in Calm     40% 0.00 in 0.0 W/m2 CLR
14:45 70.0 °F 44.5 °F 30.18 in Calm     40% 0.00 in 0.0 W/m2 CLR
14:55 70.0 °F 44.5 °F 30.18 in Calm     40% 0.00 in 0.0 W/m2 CLR
15:00 70.0 °F 44.5 °F 30.18 in Calm     40% 0.00 in 0.0 W/m2 CLR
15:05 69.1 °F 45.6 °F 30.17 in Calm     43% 0.00 in 0.0 W/m2 CLR
15:15 69.1 °F 45.6 °F 30.17 in Calm     43% 0.00 in 0.0 W/m2 CLR
15:30 69.1 °F 45.6 °F 30.17 in Calm     43% 0.00 in 0.0 W/m2 CLR
15:50 69.1 °F 45.6 °F 30.17 in Calm     43% 0.00 in 0.0 W/m2 CLR
15:55 69.1 °F 45.6 °F 30.17 in Calm     43% 0.00 in 0.0 W/m2 CLR
16:00 69.1 °F 45.6 °F 30.17 in Calm     43% 0.00 in 0.0 W/m2 CLR
16:15 70.0 °F 45.8 °F 30.16 in Calm     42% 0.00 in 0.0 W/m2 BKN
16:25 70.0 °F 45.8 °F 30.16 in Calm     42% 0.00 in 0.0 W/m2 BKN
16:35 70.0 °F 45.8 °F 30.16 in Calm     42% 0.00 in 0.0 W/m2 BKN
16:40 70.0 °F 45.8 °F 30.16 in Calm     42% 0.00 in 0.0 W/m2 BKN
16:45 70.0 °F 45.8 °F 30.16 in Calm     42% 0.00 in 0.0 W/m2 BKN
16:55 70.0 °F 45.8 °F 30.16 in Calm     42% 0.00 in 0.0 W/m2 BKN
17:00 70.0 °F 45.8 °F 30.16 in Calm     42% 0.00 in 0.0 W/m2 BKN
17:10 62.1 °F 45.7 °F 30.20 in Calm     55% 0.00 in 0.0 W/m2 BKN
17:15 62.1 °F 45.7 °F 30.20 in Calm     55% 0.00 in 0.0 W/m2 BKN
17:25 62.1 °F 45.7 °F 30.20 in Calm     55% 0.00 in 0.0 W/m2 BKN
17:30 62.1 °F 45.7 °F 30.20 in Calm     55% 0.00 in 0.0 W/m2 BKN
17:35 62.1 °F 45.7 °F 30.20 in Calm     55% 0.00 in 0.0 W/m2 BKN
17:40 62.1 °F 45.7 °F 30.20 in Calm     55% 0.00 in 0.0 W/m2 BKN
17:45 62.1 °F 45.7 °F 30.20 in Calm     55% 0.00 in 0.0 W/m2 BKN
17:50 62.1 °F 45.7 °F 30.20 in Calm     55% 0.00 in 0.0 W/m2 BKN
17:55 62.1 °F 45.7 °F 30.20 in Calm     55% 0.00 in 0.0 W/m2 BKN
18:00 62.1 °F 45.7 °F 30.20 in Calm     55% 0.00 in 0.0 W/m2 BKN
18:05 57.9 °F 46.6 °F 30.22 in Calm     66% 0.00 in 0.0 W/m2 OVC
18:10 57.9 °F 46.6 °F 30.22 in Calm     66% 0.00 in 0.0 W/m2 OVC
18:15 57.9 °F 46.6 °F 30.22 in Calm     66% 0.00 in 0.0 W/m2 OVC
18:25 57.9 °F 46.6 °F 30.22 in Calm     66% 0.00 in 0.0 W/m2 OVC
18:30 57.9 °F 46.6 °F 30.22 in Calm     66% 0.00 in 0.0 W/m2 OVC
18:40 57.9 °F 46.6 °F 30.22 in Calm     66% 0.00 in 0.0 W/m2 OVC
18:45 57.9 °F 46.6 °F 30.22 in Calm     66% 0.00 in 0.0 W/m2 OVC
18:55 57.9 °F 46.6 °F 30.22 in Calm     66% 0.00 in 0.0 W/m2 OVC
19:00 57.9 °F 46.6 °F 30.22 in Calm     66% 0.00 in 0.0 W/m2 OVC
19:10 54.0 °F 44.0 °F 30.25 in Calm     69% 0.00 in 0.0 W/m2 BKN
19:15 54.0 °F 44.0 °F 30.25 in Calm     69% 0.00 in 0.0 W/m2 BKN
19:20 54.0 °F 44.0 °F 30.25 in Calm     69% 0.00 in 0.0 W/m2 BKN
19:30 54.0 °F 44.0 °F 30.25 in Calm     69% 0.00 in 0.0 W/m2 BKN
19:40 54.0 °F 44.0 °F 30.25 in Calm     69% 0.00 in 0.0 W/m2 BKN
19:45 54.0 °F 44.0 °F 30.25 in Calm     69% 0.00 in 0.0 W/m2 BKN
19:50 54.0 °F 44.0 °F 30.25 in Calm     69% 0.00 in 0.0 W/m2 BKN
19:55 54.0 °F 44.0 °F 30.25 in Calm     69% 0.00 in 0.0 W/m2 BKN
20:00 54.0 °F 44.0 °F 30.25 in Calm     69% 0.00 in 0.0 W/m2 BKN
20:10 51.1 °F 42.7 °F 30.26 in Calm     73% 0.00 in 0.0 W/m2 CLR
20:15 51.1 °F 42.7 °F 30.26 in Calm     73% 0.00 in 0.0 W/m2 CLR
20:25 51.1 °F 42.7 °F 30.26 in Calm     73% 0.00 in 0.0 W/m2 CLR
20:30 51.1 °F 42.7 °F 30.26 in Calm     73% 0.00 in 0.0 W/m2 CLR
20:40 51.1 °F 42.7 °F 30.26 in Calm     73% 0.00 in 0.0 W/m2 CLR
20:45 51.1 °F 42.7 °F 30.26 in Calm     73% 0.00 in 0.0 W/m2 CLR
20:55 51.1 °F 42.7 °F 30.26 in Calm     73% 0.00 in 0.0 W/m2 CLR
21:00 51.1 °F 42.7 °F 30.26 in Calm     73% 0.00 in 0.0 W/m2 CLR
21:10 48.0 °F 41.8 °F 30.28 in Calm     79% 0.00 in 0.0 W/m2 CLR
21:15 48.0 °F 41.8 °F 30.28 in Calm     79% 0.00 in 0.0 W/m2 CLR
21:20 48.0 °F 41.8 °F 30.28 in Calm     79% 0.00 in 0.0 W/m2 CLR
21:30 48.0 °F 41.8 °F 30.28 in Calm     79% 0.00 in 0.0 W/m2 CLR
21:40 48.0 °F 41.8 °F 30.28 in Calm     79% 0.00 in 0.0 W/m2 CLR
21:45 48.0 °F 41.8 °F 30.28 in Calm     79% 0.00 in 0.0 W/m2 CLR
21:55 48.0 °F 41.8 °F 30.28 in Calm     79% 0.00 in 0.0 W/m2 CLR
22:00 48.0 °F 41.8 °F 30.28 in Calm     79% 0.00 in 0.0 W/m2 CLR
22:10 46.0 °F 40.9 °F 30.31 in Calm     82% 0.00 in 0.0 W/m2 CLR
22:15 46.0 °F 40.9 °F 30.31 in Calm     82% 0.00 in 0.0 W/m2 CLR
22:25 46.0 °F 40.9 °F 30.31 in Calm     82% 0.00 in 0.0 W/m2 CLR
22:30 46.0 °F 40.9 °F 30.31 in Calm     82% 0.00 in 0.0 W/m2 CLR
22:40 46.0 °F 40.9 °F 30.31 in Calm     82% 0.00 in 0.0 W/m2 CLR
22:45 46.0 °F 40.9 °F 30.31 in Calm     82% 0.00 in 0.0 W/m2 CLR
22:55 46.0 °F 40.9 °F 30.31 in Calm     82% 0.00 in 0.0 W/m2 CLR
23:00 46.0 °F 40.9 °F 30.31 in Calm     82% 0.00 in 0.0 W/m2 CLR
23:10 43.0 °F 28.8 °F 30.32 in Calm     57% 0.00 in 0.0 W/m2 CLR
23:15 43.0 °F 28.8 °F 30.32 in Calm     57% 0.00 in 0.0 W/m2 CLR
23:25 43.0 °F 28.8 °F 30.32 in Calm     57% 0.00 in 0.0 W/m2 CLR
23:30 43.0 °F 28.8 °F 30.32 in Calm     57% 0.00 in 0.0 W/m2 CLR
23:40 43.0 °F 28.8 °F 30.32 in Calm     57% 0.00 in 0.0 W/m2 CLR
23:45 43.0 °F 28.8 °F 30.32 in Calm     57% 0.00 in 0.0 W/m2 CLR
23:55 43.0 °F 28.8 °F 30.32 in Calm     57% 0.00 in 0.0 W/m2 CLR
Lake Mary, FL, USA
Compliments of Weather Underground - 1.5 mb